createdAt,value
2023-09-17T00:00:11.134Z,4.53
2023-09-17T00:02:38.341Z,4.68
2023-09-17T00:05:05.519Z,5.28
2023-09-17T00:07:32.310Z,4.32
2023-09-17T00:09:59.101Z,4.93
2023-09-17T00:12:26.368Z,4.40
2023-09-17T00:14:53.383Z,4.72
2023-09-17T00:17:20.298Z,4.93
2023-09-17T00:19:47.129Z,4.80
2023-09-17T00:22:15.990Z,4.90
2023-09-17T00:24:43.153Z,4.80
2023-09-17T00:27:10.288Z,4.70
2023-09-17T00:29:37.897Z,4.95
2023-09-17T00:32:04.802Z,4.40
2023-09-17T00:34:31.659Z,4.90
2023-09-17T00:36:58.704Z,5.03
2023-09-17T00:39:25.472Z,4.90
2023-09-17T00:41:53.428Z,4.55
2023-09-17T00:44:20.310Z,4.82
2023-09-17T00:46:47.953Z,4.32
2023-09-17T00:49:15.534Z,4.72
2023-09-17T00:51:42.922Z,4.32
2023-09-17T00:54:11.938Z,4.10
2023-09-17T00:56:39.589Z,4.82
2023-09-17T00:59:09.424Z,4.78
2023-09-17T01:04:04.639Z,4.40
2023-09-17T01:06:31.841Z,4.95
2023-09-17T01:08:59.481Z,5.00
2023-09-17T01:11:26.963Z,4.90
2023-09-17T01:14:00.163Z,5.07
2023-09-17T01:16:28.073Z,5.57
2023-09-17T01:18:55.466Z,5.90
2023-09-17T01:21:37.264Z,5.40
2023-09-17T01:24:23.213Z,4.95
2023-09-17T01:27:00.746Z,5.13
2023-09-17T01:29:33.424Z,5.18
2023-09-17T01:32:00.310Z,4.70
2023-09-17T01:34:29.572Z,4.55
2023-09-17T01:37:02.372Z,5.28
2023-09-17T01:39:34.879Z,4.88
2023-09-17T01:42:05.429Z,4.75
2023-09-17T01:44:32.824Z,4.70
2023-09-17T01:47:01.677Z,4.72
2023-09-17T01:49:33.552Z,4.60
2023-09-17T01:52:00.409Z,4.40
2023-09-17T01:54:27.221Z,4.45
2023-09-17T01:56:53.965Z,4.78
2023-09-17T01:59:20.658Z,4.50
2023-09-17T02:01:47.524Z,3.72
2023-09-17T02:04:14.390Z,4.50
2023-09-17T02:06:41.180Z,4.60
2023-09-17T02:09:09.850Z,4.22
2023-09-17T02:11:36.966Z,4.95
2023-09-17T02:14:04.104Z,4.72
2023-09-17T02:16:32.953Z,4.35
2023-09-17T02:19:00.682Z,4.10
2023-09-17T02:21:27.476Z,5.03
2023-09-17T02:23:56.217Z,4.75
2023-09-17T02:26:23.042Z,4.68
2023-09-17T02:28:50.613Z,4.20
2023-09-17T02:31:17.447Z,4.57
2023-09-17T02:33:44.784Z,4.43
2023-09-17T02:36:12.645Z,4.97
2023-09-17T02:38:39.430Z,4.75
2023-09-17T02:41:06.147Z,4.13
2023-09-17T02:43:32.944Z,4.93
2023-09-17T02:45:59.725Z,4.38
2023-09-17T02:48:26.476Z,5.05
2023-09-17T02:50:53.776Z,4.25
2023-09-17T02:53:21.585Z,4.53
2023-09-17T02:55:48.607Z,4.80
2023-09-17T02:58:16.477Z,4.88
2023-09-17T03:00:44.705Z,4.70
2023-09-17T03:03:12.330Z,4.90
2023-09-17T03:05:39.502Z,4.90
2023-09-17T03:08:10.780Z,4.70
2023-09-17T03:10:44.065Z,5.25
2023-09-17T03:13:12.394Z,4.50
2023-09-17T03:15:39.128Z,4.85
2023-09-17T03:18:06.150Z,4.75
2023-09-17T03:20:36.153Z,4.88
2023-09-17T03:25:32.629Z,4.72
2023-09-17T03:28:02.984Z,5.22
2023-09-17T03:30:29.922Z,5.03
2023-09-17T03:33:04.336Z,5.57
2023-09-17T03:35:32.472Z,5.20
2023-09-17T03:37:59.369Z,5.22
2023-09-17T03:40:26.199Z,5.47
2023-09-17T03:42:53.683Z,5.75
2023-09-17T03:45:20.760Z,5.70
2023-09-17T03:47:48.896Z,5.55
2023-09-17T03:50:20.877Z,6.00
2023-09-17T03:52:53.498Z,5.97
2023-09-17T03:55:20.885Z,5.85
2023-09-17T03:57:47.684Z,5.95
2023-09-17T04:00:16.899Z,6.25
2023-09-17T04:02:44.499Z,6.07
2023-09-17T04:05:13.947Z,5.75
2023-09-17T04:07:46.058Z,5.30
2023-09-17T04:10:14.197Z,5.72
2023-09-17T04:12:42.721Z,5.20
2023-09-17T04:15:14.877Z,5.30
2023-09-17T04:17:41.809Z,4.88
2023-09-17T04:20:12.537Z,5.32
2023-09-17T04:22:39.557Z,5.53
2023-09-17T04:25:06.401Z,5.07
2023-09-17T04:27:33.469Z,4.85
2023-09-17T04:30:00.247Z,4.53
2023-09-17T04:32:27.170Z,5.45
2023-09-17T04:34:54.238Z,4.75
2023-09-17T04:37:21.429Z,5.15
2023-09-17T04:39:50.686Z,5.30
2023-09-17T04:42:18.554Z,4.53
2023-09-17T04:44:45.504Z,5.05
2023-09-17T04:47:12.428Z,5.03
2023-09-17T04:49:39.465Z,4.78
2023-09-17T04:52:06.386Z,4.90
2023-09-17T04:54:33.148Z,5.60
2023-09-17T04:57:00.154Z,5.13
2023-09-17T04:59:28.966Z,5.85
2023-09-17T05:01:55.954Z,4.55
2023-09-17T05:04:25.452Z,5.20
2023-09-17T05:06:52.264Z,5.20
2023-09-17T05:09:19.704Z,4.88
2023-09-17T05:11:46.963Z,5.32
2023-09-17T05:14:13.772Z,5.43
2023-09-17T05:16:41.357Z,5.72
2023-09-17T05:19:08.247Z,5.40
2023-09-17T05:21:34.943Z,4.88
2023-09-17T05:24:01.754Z,5.45
2023-09-17T05:26:28.541Z,4.97
2023-09-17T05:28:55.421Z,4.80
2023-09-17T05:31:22.295Z,4.60
2023-09-17T05:33:49.484Z,4.80
2023-09-17T05:36:16.429Z,4.90
2023-09-17T05:38:43.376Z,5.03
2023-09-17T05:41:12.989Z,4.60
2023-09-17T05:43:40.187Z,4.72
2023-09-17T05:46:06.948Z,5.32
2023-09-17T05:48:33.744Z,4.90
2023-09-17T05:51:00.813Z,4.63
2023-09-17T05:53:27.666Z,5.22
2023-09-17T05:55:54.450Z,5.25
2023-09-17T05:58:21.266Z,5.05
2023-09-17T06:00:48.693Z,5.32
2023-09-17T06:03:15.658Z,5.13
2023-09-17T06:05:42.456Z,5.10
2023-09-17T06:08:09.392Z,5.30
2023-09-17T06:10:36.965Z,5.07
2023-09-17T06:13:04.421Z,4.72
2023-09-17T06:15:31.208Z,5.40
2023-09-17T06:17:58.075Z,5.60
2023-09-17T06:20:24.919Z,4.97
2023-09-17T06:22:51.747Z,4.80
2023-09-17T06:25:18.708Z,4.65
2023-09-17T06:27:45.496Z,4.97
2023-09-17T06:30:12.665Z,5.50
2023-09-17T06:32:39.764Z,4.93
2023-09-17T06:35:07.310Z,5.05
2023-09-17T06:37:33.998Z,5.07
2023-09-17T06:40:00.963Z,5.32
2023-09-17T06:42:27.798Z,5.80
2023-09-17T06:44:54.542Z,5.85
2023-09-17T06:47:21.503Z,6.53
2023-09-17T06:49:48.726Z,6.30
2023-09-17T06:52:15.944Z,7.13
2023-09-17T06:54:42.783Z,7.55
2023-09-17T06:57:09.639Z,7.53
2023-09-17T06:59:36.585Z,7.60
2023-09-17T07:02:07.009Z,5.68
2023-09-17T07:04:33.898Z,5.85
2023-09-17T07:07:02.103Z,5.57
2023-09-17T07:09:30.192Z,5.18
2023-09-17T07:11:56.948Z,5.20
2023-09-17T07:14:23.648Z,4.38
2023-09-17T07:16:50.735Z,4.30
2023-09-17T07:19:17.603Z,5.05
2023-09-17T07:21:44.419Z,4.63
2023-09-17T07:24:11.241Z,4.70
2023-09-17T07:26:38.003Z,4.10
2023-09-17T07:29:04.978Z,4.00
2023-09-17T07:31:31.934Z,3.95
2023-09-17T07:33:58.713Z,4.28
2023-09-17T07:36:25.571Z,3.80
2023-09-17T07:38:52.997Z,3.45
2023-09-17T07:41:19.840Z,3.38
2023-09-17T07:43:46.684Z,3.47
2023-09-17T07:46:14.933Z,3.53
2023-09-17T07:48:42.183Z,3.10
2023-09-17T07:51:09.082Z,3.60
2023-09-17T07:53:35.838Z,3.50
2023-09-17T07:56:02.994Z,3.40
2023-09-17T07:58:29.824Z,3.40
2023-09-17T08:00:56.661Z,2.97
2023-09-17T08:03:23.568Z,3.22
2023-09-17T08:05:53.873Z,3.22
2023-09-17T08:08:21.880Z,3.00
2023-09-17T08:10:50.761Z,2.72
2023-09-17T08:13:17.746Z,3.10
2023-09-17T08:15:44.881Z,3.13
2023-09-17T08:18:11.736Z,3.40
2023-09-17T08:20:38.544Z,2.67
2023-09-17T08:23:05.332Z,3.33
2023-09-17T08:25:32.250Z,3.38
2023-09-17T08:28:00.313Z,2.88
2023-09-17T08:30:27.120Z,2.70
2023-09-17T08:32:54.205Z,2.75
2023-09-17T08:35:21.325Z,2.53
2023-09-17T08:37:50.733Z,2.58
2023-09-17T08:40:20.429Z,3.00
2023-09-17T08:45:17.043Z,2.53
2023-09-17T08:47:44.496Z,2.58
2023-09-17T08:50:11.435Z,2.80
2023-09-17T08:52:44.807Z,2.90
2023-09-17T08:55:12.870Z,2.65
2023-09-17T08:57:43.423Z,2.78
2023-09-17T09:00:12.087Z,2.78
2023-09-17T09:02:45.650Z,2.85
2023-09-17T09:05:16.344Z,2.67
2023-09-17T09:07:45.677Z,2.72
2023-09-17T09:10:14.709Z,3.10
2023-09-17T09:12:43.393Z,3.00
2023-09-17T09:15:14.047Z,2.90
2023-09-17T09:17:40.967Z,2.70
2023-09-17T09:20:18.203Z,2.70
2023-09-17T09:22:46.448Z,2.58
2023-09-17T09:25:17.669Z,2.47
2023-09-17T09:27:44.967Z,2.40
2023-09-17T09:30:13.222Z,2.75
2023-09-17T09:32:40.376Z,2.83
2023-09-17T09:35:07.844Z,2.80
2023-09-17T09:37:36.528Z,2.40
2023-09-17T09:40:06.283Z,2.85
2023-09-17T09:42:33.542Z,2.70
2023-09-17T09:45:00.404Z,2.45
2023-09-17T09:47:27.290Z,2.65
2023-09-17T09:49:54.900Z,2.55
2023-09-17T09:52:23.004Z,2.60
2023-09-17T09:54:49.799Z,2.70
2023-09-17T09:57:19.803Z,2.42
2023-09-17T09:59:51.936Z,2.50
2023-09-17T10:02:22.269Z,2.40
2023-09-17T10:04:49.883Z,2.00
2023-09-17T10:07:18.138Z,2.65
2023-09-17T10:09:45.165Z,2.28
2023-09-17T10:12:11.969Z,2.40
2023-09-17T10:14:39.405Z,2.53
2023-09-17T10:17:11.728Z,2.47
2023-09-17T10:19:39.585Z,2.28
2023-09-17T10:22:09.508Z,2.50
2023-09-17T10:24:40.333Z,2.00
2023-09-17T10:27:10.436Z,2.42
2023-09-17T10:29:38.068Z,2.33
2023-09-17T10:32:05.802Z,2.55
2023-09-17T10:34:34.538Z,2.47
2023-09-17T10:37:04.305Z,2.30
2023-09-17T10:39:32.825Z,2.35
2023-09-17T10:42:02.942Z,2.30
2023-09-17T10:44:31.198Z,2.45
2023-09-17T10:47:04.809Z,2.30
2023-09-17T10:49:37.686Z,2.58
2023-09-17T10:52:06.944Z,1.98
2023-09-17T10:54:33.805Z,2.38
2023-09-17T10:57:04.855Z,2.28
2023-09-17T10:59:32.570Z,2.47
2023-09-17T11:02:00.453Z,2.78
2023-09-17T11:04:28.951Z,2.50
2023-09-17T11:06:56.748Z,3.10
2023-09-17T11:09:23.717Z,2.63
2023-09-17T11:11:51.647Z,2.63
2023-09-17T11:14:18.679Z,2.38
2023-09-17T11:16:49.487Z,2.65
2023-09-17T11:19:18.345Z,2.70
2023-09-17T11:21:49.454Z,2.72
2023-09-17T11:24:19.205Z,2.60
2023-09-17T11:26:47.250Z,2.90
2023-09-17T11:29:14.709Z,3.00
2023-09-17T11:31:53.517Z,2.47
2023-09-17T11:34:22.187Z,2.42
2023-09-17T11:36:49.794Z,2.20
2023-09-17T11:39:19.104Z,2.58
2023-09-17T11:41:48.758Z,2.90
2023-09-17T11:44:17.346Z,2.60
2023-09-17T11:46:45.453Z,2.60
2023-09-17T11:49:13.016Z,2.88
2023-09-17T11:51:44.795Z,2.97
2023-09-17T11:54:16.696Z,2.90
2023-09-17T11:56:49.370Z,2.50
2023-09-17T11:59:21.315Z,2.30
2023-09-17T12:01:57.539Z,2.13
2023-09-17T12:04:30.918Z,2.00
2023-09-17T12:06:59.113Z,2.55
2023-09-17T12:09:39.395Z,2.30
2023-09-17T12:12:07.674Z,2.20
2023-09-17T12:14:35.409Z,2.10
2023-09-17T12:17:03.434Z,2.03
2023-09-17T12:19:31.235Z,1.73
2023-09-17T12:22:00.443Z,1.98
2023-09-17T12:24:37.393Z,2.42
2023-09-17T12:27:24.094Z,2.50
2023-09-17T12:29:51.758Z,2.17
2023-09-17T12:32:21.408Z,2.30
2023-09-17T12:34:51.984Z,2.05
2023-09-17T12:37:19.692Z,1.90
2023-09-17T12:39:48.143Z,2.17
2023-09-17T12:42:15.402Z,1.90
2023-09-17T12:44:42.656Z,1.90
2023-09-17T12:47:10.347Z,2.25
2023-09-17T12:49:37.854Z,1.80
2023-09-17T12:52:05.406Z,1.80
2023-09-17T12:54:32.659Z,1.77
2023-09-17T12:57:00.393Z,1.90
2023-09-17T12:59:34.681Z,1.80
2023-09-17T13:02:07.593Z,1.90
2023-09-17T13:04:42.660Z,1.80
2023-09-17T13:07:23.821Z,1.60
2023-09-17T13:09:56.268Z,1.90
2023-09-17T13:12:26.196Z,1.50
2023-09-17T13:14:56.908Z,1.70
2023-09-17T13:17:27.409Z,1.80
2023-09-17T13:19:57.118Z,1.80
2023-09-17T13:22:24.959Z,1.80
2023-09-17T13:24:52.321Z,1.80
2023-09-17T13:27:20.535Z,1.77
2023-09-17T13:29:55.009Z,2.20
2023-09-17T13:32:22.643Z,1.80
2023-09-17T13:34:50.739Z,1.70
2023-09-17T13:37:18.566Z,1.93
2023-09-17T13:39:47.849Z,1.73
2023-09-17T13:42:15.149Z,1.98
2023-09-17T13:44:44.306Z,1.80
2023-09-17T13:47:13.279Z,1.90
2023-09-17T13:49:42.902Z,1.98
2023-09-17T13:52:10.885Z,1.77
2023-09-17T13:54:45.424Z,2.13
2023-09-17T13:57:13.349Z,1.80
2023-09-17T13:59:40.447Z,1.77
2023-09-17T14:02:08.494Z,1.85
2023-09-17T14:04:35.714Z,1.60
2023-09-17T14:07:04.145Z,1.90
2023-09-17T14:09:31.666Z,1.83
2023-09-17T14:12:00.839Z,1.60
2023-09-17T14:16:54.629Z,1.60
2023-09-17T14:19:21.721Z,1.90
2023-09-17T14:21:49.319Z,1.83
2023-09-17T14:24:17.289Z,1.70
2023-09-17T14:26:45.216Z,1.60
2023-09-17T14:29:12.401Z,1.90
2023-09-17T14:31:43.519Z,1.65
2023-09-17T14:34:12.180Z,1.58
2023-09-17T14:36:39.539Z,1.70
2023-09-17T14:39:07.563Z,1.70
2023-09-17T14:41:36.222Z,1.70
2023-09-17T14:44:03.723Z,1.92
2023-09-17T14:46:33.192Z,1.98
2023-09-17T14:49:00.490Z,2.10
2023-09-17T14:51:27.865Z,1.98
2023-09-17T14:53:55.061Z,2.20
2023-09-17T14:56:22.209Z,2.22
2023-09-17T14:58:50.230Z,1.98
2023-09-17T15:01:46.956Z,1.98
2023-09-17T15:04:05.707Z,2.15
2023-09-17T15:06:33.234Z,2.03
2023-09-17T15:09:01.049Z,2.25
2023-09-17T15:11:28.383Z,2.05
2023-09-17T15:13:56.083Z,2.03
2023-09-17T15:16:23.834Z,2.30
2023-09-17T15:18:51.479Z,2.13
2023-09-17T15:21:19.766Z,2.13
2023-09-17T15:23:48.502Z,2.30
2023-09-17T15:26:15.941Z,1.70
2023-09-17T15:28:45.227Z,2.33
2023-09-17T15:33:41.350Z,2.30
2023-09-17T15:36:12.345Z,2.15
2023-09-17T15:38:41.821Z,2.50
2023-09-17T15:41:09.643Z,2.28
2023-09-17T15:43:39.105Z,2.40
2023-09-17T15:46:09.421Z,2.60
2023-09-17T15:48:38.878Z,2.58
2023-09-17T15:51:06.931Z,2.75
2023-09-17T15:53:34.723Z,2.60
2023-09-17T15:56:03.437Z,2.85
2023-09-17T15:58:31.286Z,3.28
2023-09-17T16:00:59.260Z,2.53
2023-09-17T16:03:27.354Z,2.72
2023-09-17T16:05:55.295Z,2.95
2023-09-17T16:08:23.446Z,2.65
2023-09-17T16:10:50.519Z,2.97
2023-09-17T16:13:17.854Z,3.00
2023-09-17T16:15:46.775Z,2.92
2023-09-17T16:18:14.720Z,2.80
2023-09-17T16:20:41.939Z,2.80
2023-09-17T16:23:09.384Z,2.92
2023-09-17T16:25:37.361Z,2.80
2023-09-17T16:28:07.130Z,3.10
2023-09-17T16:30:34.315Z,2.72
2023-09-17T16:33:04.524Z,3.13
2023-09-17T16:35:31.406Z,3.50
2023-09-17T16:37:59.159Z,3.38
2023-09-17T16:40:25.974Z,3.10
2023-09-17T16:43:07.439Z,3.53
2023-09-17T16:45:37.488Z,3.33
2023-09-17T16:48:05.404Z,3.25
2023-09-17T16:50:33.553Z,3.55
2023-09-17T16:53:00.824Z,3.00
2023-09-17T16:55:29.538Z,3.50
2023-09-17T16:57:56.959Z,3.40
2023-09-17T17:00:25.994Z,3.65
2023-09-17T17:02:56.097Z,3.35
2023-09-17T17:05:23.898Z,3.58
2023-09-17T17:07:51.422Z,3.50
2023-09-17T17:10:18.396Z,3.22
2023-09-17T17:12:45.421Z,3.58
2023-09-17T17:15:13.070Z,3.90
2023-09-17T17:17:42.080Z,3.60
2023-09-17T17:20:09.982Z,3.75
2023-09-17T17:22:49.824Z,3.53
2023-09-17T17:25:19.814Z,4.35
2023-09-17T17:27:50.555Z,4.30
2023-09-17T17:30:18.003Z,4.05
2023-09-17T17:32:46.510Z,4.50
2023-09-17T17:35:18.567Z,4.00
2023-09-17T17:37:47.771Z,3.53
2023-09-17T17:40:15.203Z,4.43
2023-09-17T17:42:43.960Z,4.15
2023-09-17T17:45:12.132Z,4.10
2023-09-17T17:47:40.342Z,4.32
2023-09-17T17:50:14.874Z,4.03
2023-09-17T17:52:43.551Z,4.20
2023-09-17T17:55:12.692Z,4.57
2023-09-17T17:57:40.319Z,4.43
2023-09-17T18:00:10.954Z,4.53
2023-09-17T18:02:40.789Z,4.53
2023-09-17T18:05:11.750Z,4.38
2023-09-17T18:07:42.315Z,4.32
2023-09-17T18:10:11.722Z,4.22
2023-09-17T18:12:40.653Z,4.53
2023-09-17T18:15:10.288Z,5.10
2023-09-17T18:17:38.138Z,4.57
2023-09-17T18:20:07.695Z,4.85
2023-09-17T18:22:41.452Z,4.90
2023-09-17T18:25:11.551Z,5.07
2023-09-17T18:27:43.383Z,4.30
2023-09-17T18:30:10.933Z,4.72
2023-09-17T18:32:40.517Z,4.43
2023-09-17T18:37:37.443Z,4.25
2023-09-17T18:40:05.410Z,4.25
2023-09-17T18:42:34.626Z,4.43
2023-09-17T18:45:06.916Z,4.60
2023-09-17T18:47:36.893Z,4.40
2023-09-17T18:50:05.353Z,4.32
2023-09-17T18:52:32.699Z,4.32
2023-09-17T18:55:02.526Z,4.88
2023-09-17T18:57:30.696Z,4.78
2023-09-17T18:59:58.868Z,4.70
2023-09-17T19:02:27.584Z,4.70
2023-09-17T19:04:58.980Z,4.70
2023-09-17T19:07:26.921Z,4.40
2023-09-17T19:09:56.097Z,4.72
2023-09-17T19:12:24.958Z,5.20
2023-09-17T19:14:54.254Z,4.53
2023-09-17T19:17:21.936Z,4.47
2023-09-17T19:19:50.078Z,4.93
2023-09-17T19:22:18.267Z,5.13
2023-09-17T19:24:46.332Z,4.72
2023-09-17T19:27:16.614Z,5.40
2023-09-17T19:29:48.208Z,5.15
2023-09-17T19:32:16.369Z,5.40
2023-09-17T19:34:44.222Z,5.25
2023-09-17T19:37:12.789Z,4.70
2023-09-17T19:39:41.440Z,5.50
2023-09-17T19:42:11.499Z,5.10
2023-09-17T19:44:40.863Z,4.80
2023-09-17T19:47:08.783Z,4.80
2023-09-17T19:49:39.941Z,4.93
2023-09-17T19:52:09.061Z,5.28
2023-09-17T19:54:37.162Z,5.18
2023-09-17T19:57:05.247Z,5.32
2023-09-17T19:59:32.355Z,4.88
2023-09-17T20:02:00.296Z,5.07
2023-09-17T20:04:28.684Z,5.47
2023-09-17T20:06:56.641Z,5.93
2023-09-17T20:09:24.284Z,5.18
2023-09-17T20:11:51.865Z,5.30
2023-09-17T20:14:19.532Z,5.50
2023-09-17T20:16:47.017Z,5.38
2023-09-17T20:19:17.452Z,5.95
2023-09-17T20:21:45.167Z,5.32
2023-09-17T20:24:12.423Z,5.78
2023-09-17T20:26:44.799Z,5.10
2023-09-17T20:29:13.197Z,5.80
2023-09-17T20:31:40.555Z,5.80
2023-09-17T20:34:08.390Z,5.32
2023-09-17T20:36:35.646Z,5.47
2023-09-17T20:39:06.445Z,5.97
2023-09-17T20:41:34.825Z,6.18
2023-09-17T20:44:01.982Z,5.95
2023-09-17T20:46:29.040Z,5.70
2023-09-17T20:48:59.879Z,5.45
2023-09-17T20:51:29.175Z,5.35
2023-09-17T20:53:56.308Z,5.93
2023-09-17T20:56:24.727Z,6.28
2023-09-17T20:58:52.204Z,5.70
2023-09-17T21:01:19.846Z,5.78
2023-09-17T21:03:46.902Z,5.78
2023-09-17T21:06:14.060Z,5.65
2023-09-17T21:08:40.822Z,6.20
2023-09-17T21:11:07.766Z,6.28
2023-09-17T21:13:34.516Z,6.40
2023-09-17T21:16:01.393Z,6.20
2023-09-17T21:18:28.209Z,6.05
2023-09-17T21:20:56.140Z,5.50
2023-09-17T21:23:23.443Z,5.40
2023-09-17T21:25:50.313Z,5.93
2023-09-17T21:28:17.036Z,5.53
2023-09-17T21:30:45.112Z,6.18
2023-09-17T21:33:11.966Z,5.22
2023-09-17T21:35:38.769Z,7.07
2023-09-17T21:38:05.496Z,6.13
2023-09-17T21:40:32.392Z,5.68
2023-09-17T21:42:59.256Z,5.90
2023-09-17T21:45:26.073Z,5.43
2023-09-17T21:47:52.900Z,5.50
2023-09-17T21:50:19.717Z,6.70
2023-09-17T21:52:46.508Z,6.30
2023-09-17T21:55:13.255Z,6.15
2023-09-17T21:57:40.093Z,6.25
2023-09-17T22:00:08.542Z,5.57
2023-09-17T22:02:35.478Z,6.03
2023-09-17T22:05:02.679Z,5.60
2023-09-17T22:07:29.434Z,5.88
2023-09-17T22:09:56.202Z,5.38
2023-09-17T22:12:23.037Z,5.88
2023-09-17T22:14:49.785Z,6.03
2023-09-17T22:17:17.845Z,6.43
2023-09-17T22:19:50.098Z,5.93
2023-09-17T22:22:16.930Z,6.40
2023-09-17T22:24:45.255Z,6.47
2023-09-17T22:27:14.324Z,5.80
2023-09-17T22:29:42.604Z,6.97
2023-09-17T22:32:09.450Z,6.78
2023-09-17T22:34:36.312Z,6.03
2023-09-17T22:37:03.758Z,6.32
2023-09-17T22:39:31.099Z,6.60
2023-09-17T22:41:57.869Z,6.78
2023-09-17T22:44:25.248Z,6.78
2023-09-17T22:46:52.410Z,7.70
2023-09-17T22:49:19.502Z,6.93
2023-09-17T22:51:46.201Z,6.53
2023-09-17T22:54:13.012Z,7.05
2023-09-17T22:56:39.828Z,7.80
2023-09-17T22:59:06.725Z,7.07
2023-09-17T23:03:36.332Z,7.68
2023-09-17T23:06:03.466Z,7.55
2023-09-17T23:08:30.222Z,7.60
2023-09-17T23:11:01.745Z,7.57
2023-09-17T23:13:28.594Z,7.03
2023-09-17T23:15:57.161Z,7.80
2023-09-17T23:18:24.516Z,7.75
2023-09-17T23:20:52.738Z,8.15
2023-09-17T23:23:19.682Z,7.47
2023-09-17T23:25:46.688Z,8.05
2023-09-17T23:28:14.165Z,7.30
2023-09-17T23:30:44.221Z,7.30
2023-09-17T23:33:11.315Z,7.15
2023-09-17T23:35:39.987Z,6.72
2023-09-17T23:38:06.788Z,7.40
2023-09-17T23:40:33.544Z,7.35
2023-09-17T23:43:00.283Z,7.00
2023-09-17T23:45:27.155Z,7.45
2023-09-17T23:47:54.035Z,7.32
2023-09-17T23:50:20.944Z,7.22
2023-09-17T23:52:48.568Z,6.70
2023-09-17T23:55:15.425Z,7.30
2023-09-17T23:57:42.289Z,6.88
